createdAt,value
2017-04-28T00:00:57.958Z,99.99
2017-04-28T00:01:57.933Z,99.99
2017-04-28T00:02:57.914Z,99.99
2017-04-28T00:03:57.892Z,99.99
2017-04-28T00:04:57.876Z,99.87
2017-04-28T00:05:57.845Z,99.99
2017-04-28T00:06:57.826Z,99.99
2017-04-28T00:07:57.800Z,99.99
2017-04-28T00:08:57.779Z,99.99
2017-04-28T00:09:57.758Z,99.87
2017-04-28T00:10:57.733Z,99.68
2017-04-28T00:11:57.712Z,99.68
2017-04-28T00:12:57.692Z,99.68
2017-04-28T00:13:57.669Z,99.68
2017-04-28T00:14:57.642Z,99.68
2017-04-28T00:15:57.621Z,99.68
2017-04-28T00:16:57.598Z,99.5
2017-04-28T00:17:57.582Z,99.5
2017-04-28T00:18:57.557Z,99.12
2017-04-28T00:19:57.538Z,99.31
2017-04-28T00:20:57.509Z,99.12
2017-04-28T00:21:57.490Z,99.12
2017-04-28T00:22:57.463Z,99.12
2017-04-28T00:23:57.447Z,99.12
2017-04-28T00:24:57.420Z,99.02
2017-04-28T00:25:57.397Z,98.93
2017-04-28T00:26:57.374Z,99.17
2017-04-28T00:27:57.399Z,99.02
2017-04-28T00:28:57.332Z,98.74
2017-04-28T00:29:57.312Z,99.31
2017-04-28T00:30:57.287Z,99.02
2017-04-28T00:31:57.262Z,99.02
2017-04-28T00:32:57.241Z,99.02
2017-04-28T00:33:57.221Z,98.93
2017-04-28T00:34:57.199Z,99.31
2017-04-28T00:35:57.177Z,99.02
2017-04-28T00:36:57.149Z,98.83
2017-04-28T00:37:57.132Z,98.74
2017-04-28T00:38:57.108Z,98.93
2017-04-28T00:39:57.081Z,98.93
2017-04-28T00:40:57.057Z,98.55
2017-04-28T00:41:57.034Z,98.36
2017-04-28T00:42:57.026Z,98.36
2017-04-28T00:43:56.993Z,98.46
2017-04-28T00:44:56.971Z,97.89
2017-04-28T00:45:56.948Z,98.27
2017-04-28T00:46:56.924Z,98.74
2017-04-28T00:47:56.903Z,98.46
2017-04-28T00:48:56.880Z,98.55
2017-04-28T00:49:56.858Z,98.18
2017-04-28T00:50:56.833Z,98.36
2017-04-28T00:51:56.814Z,98.08
2017-04-28T00:52:56.792Z,98.36
2017-04-28T00:53:56.764Z,97.99
2017-04-28T00:54:56.745Z,98.36
2017-04-28T00:55:56.724Z,98.13
2017-04-28T00:56:56.701Z,98.23
2017-04-28T00:57:56.678Z,97.47
2017-04-28T00:58:56.656Z,98.04
2017-04-28T00:59:56.633Z,98.08
2017-04-28T01:00:56.611Z,98.27
2017-04-28T01:01:56.588Z,98.36
2017-04-28T01:02:56.566Z,98.27
2017-04-28T01:03:56.542Z,97.89
2017-04-28T01:04:56.519Z,98.36
2017-04-28T01:05:56.495Z,98.36
2017-04-28T01:06:56.469Z,98.27
2017-04-28T01:07:56.450Z,98.18
2017-04-28T01:08:56.126Z,98.36
2017-04-28T01:09:56.401Z,98.55
2017-04-28T01:10:56.377Z,98.65
2017-04-28T01:11:56.357Z,98.18
2017-04-28T01:12:56.334Z,98.36
2017-04-28T01:13:56.344Z,98.46
2017-04-28T01:14:56.286Z,98.55
2017-04-28T01:15:56.260Z,98.18
2017-04-28T01:16:56.239Z,98.65
2017-04-28T01:17:56.213Z,98.36
2017-04-28T01:18:56.209Z,98.65
2017-04-28T01:19:56.171Z,98.36
2017-04-28T01:20:56.142Z,98.08
2017-04-28T01:21:56.118Z,98.18
2017-04-28T01:22:56.096Z,97.99
2017-04-28T01:23:56.075Z,98.18
2017-04-28T01:24:56.050Z,98.65
2017-04-28T01:25:56.027Z,97.99
2017-04-28T01:26:56.004Z,97.89
2017-04-28T01:27:56.012Z,97.61
2017-04-28T01:28:55.958Z,97.33
2017-04-28T01:29:55.934Z,97.42
2017-04-28T01:30:55.910Z,97.14
2017-04-28T01:31:55.888Z,97.33
2017-04-28T01:32:55.865Z,96.86
2017-04-28T01:33:55.849Z,96.86
2017-04-28T01:34:55.822Z,97.05
2017-04-28T01:35:55.798Z,97.05
2017-04-28T01:36:55.775Z,97.14
2017-04-28T01:37:55.753Z,97.05
2017-04-28T01:38:55.734Z,97.05
2017-04-28T01:39:55.706Z,97.14
2017-04-28T01:40:55.682Z,96.77
2017-04-28T01:41:55.662Z,96.95
2017-04-28T01:42:55.338Z,96.95
2017-04-28T01:43:55.618Z,97.24
2017-04-28T01:44:55.598Z,97.24
2017-04-28T01:45:55.570Z,97.24
2017-04-28T01:46:55.548Z,97.61
2017-04-28T01:47:55.527Z,97.52
2017-04-28T01:48:55.504Z,96.95
2017-04-28T01:49:55.483Z,97.24
2017-04-28T01:50:55.456Z,97.33
2017-04-28T01:51:55.433Z,97.52
2017-04-28T01:52:55.412Z,97.33
2017-04-28T01:53:55.390Z,97.42
2017-04-28T01:54:55.365Z,97.52
2017-04-28T01:55:55.349Z,97.52
2017-04-28T01:56:55.318Z,97.33
2017-04-28T01:57:55.297Z,97.14
2017-04-28T01:58:55.277Z,96.95
2017-04-28T01:59:55.252Z,97.05
2017-04-28T02:00:55.226Z,96.95
2017-04-28T02:01:55.203Z,96.67
2017-04-28T02:02:55.185Z,96.67
2017-04-28T02:03:55.158Z,97.24
2017-04-28T02:04:55.138Z,96.95
2017-04-28T02:05:55.113Z,96.95
2017-04-28T02:06:55.090Z,96.77
2017-04-28T02:07:55.070Z,96.58
2017-04-28T02:08:55.044Z,96.39
2017-04-28T02:09:55.023Z,96.39
2017-04-28T02:10:54.998Z,96.2
2017-04-28T02:11:54.975Z,96.2
2017-04-28T02:12:54.959Z,96.11
2017-04-28T02:13:54.932Z,95.64
2017-04-28T02:14:54.908Z,95.64
2017-04-28T02:15:54.889Z,95.92
2017-04-28T02:16:54.868Z,95.64
2017-04-28T02:17:54.841Z,96.2
2017-04-28T02:18:54.822Z,96.3
2017-04-28T02:19:54.801Z,96.48
2017-04-28T02:20:54.777Z,96.48
2017-04-28T02:21:54.453Z,96.58
2017-04-28T02:22:54.729Z,96.48
2017-04-28T02:23:54.711Z,96.3
2017-04-28T02:24:54.686Z,96.39
2017-04-28T02:25:54.659Z,96.58
2017-04-28T02:26:54.640Z,96.39
2017-04-28T02:27:54.618Z,96.11
2017-04-28T02:28:54.596Z,96.58
2017-04-28T02:29:54.572Z,96.86
2017-04-28T02:30:54.547Z,96.58
2017-04-28T02:31:54.524Z,96.58
2017-04-28T02:32:54.499Z,96.39
2017-04-28T02:33:54.481Z,96.58
2017-04-28T02:34:54.456Z,96.58
2017-04-28T02:35:54.432Z,96.39
2017-04-28T02:37:07.790Z,96.39
2017-04-28T02:37:54.387Z,96.86
2017-04-28T02:38:54.059Z,96.58
2017-04-28T02:39:54.339Z,96.77
2017-04-28T02:40:54.313Z,96.48
2017-04-28T02:41:54.292Z,96.67
2017-04-28T02:42:54.273Z,96.58
2017-04-28T02:43:54.244Z,96.67
2017-04-28T02:44:54.218Z,96.67
2017-04-28T02:45:54.194Z,96.39
2017-04-28T02:46:54.173Z,96.39
2017-04-28T02:47:54.149Z,96.39
2017-04-28T02:48:54.125Z,96.58
2017-04-28T02:49:54.103Z,96.67
2017-04-28T02:50:54.078Z,96.48
2017-04-28T02:51:54.053Z,96.67
2017-04-28T02:52:54.029Z,96.77
2017-04-28T02:53:54.008Z,96.48
2017-04-28T02:54:53.983Z,96.48
2017-04-28T02:55:53.959Z,96.58
2017-04-28T02:56:53.935Z,96.77
2017-04-28T02:57:53.913Z,96.86
2017-04-28T02:58:53.884Z,96.2
2017-04-28T02:59:53.865Z,96.11
2017-04-28T03:00:53.841Z,96.01
2017-04-28T03:01:53.817Z,96.3
2017-04-28T03:02:53.795Z,96.11
2017-04-28T03:03:53.768Z,96.58
2017-04-28T03:04:53.745Z,96.86
2017-04-28T03:05:53.721Z,96.2
2017-04-28T03:06:53.699Z,96.58
2017-04-28T03:07:53.673Z,96.11
2017-04-28T03:08:53.868Z,96.2
2017-04-28T03:09:53.630Z,96.3
2017-04-28T03:10:53.604Z,98.27
2017-04-28T03:11:53.587Z,99.31
2017-04-28T03:12:53.562Z,99.59
2017-04-28T03:13:53.739Z,99.59
2017-04-28T03:14:53.512Z,99.4
2017-04-28T03:15:53.489Z,99.68
2017-04-28T03:16:53.465Z,99.4
2017-04-28T03:17:53.474Z,99.4
2017-04-28T03:18:53.419Z,99.68
2017-04-28T03:19:53.397Z,99.02
2017-04-28T03:20:53.370Z,98.93
2017-04-28T03:21:53.350Z,98.83
2017-04-28T03:22:53.328Z,98.83
2017-04-28T03:23:53.305Z,99.31
2017-04-28T03:24:53.280Z,98.18
2017-04-28T03:25:53.256Z,98.08
2017-04-28T03:26:53.237Z,98.27
2017-04-28T03:27:53.213Z,98.18
2017-04-28T03:28:53.189Z,98.27
2017-04-28T03:29:53.167Z,98.46
2017-04-28T03:30:53.154Z,98.55
2017-04-28T03:31:53.125Z,98.08
2017-04-28T03:32:53.099Z,98.27
2017-04-28T03:33:53.076Z,98.08
2017-04-28T03:34:53.054Z,98.18
2017-04-28T03:35:52.730Z,98.27
2017-04-28T03:36:53.221Z,98.08
2017-04-28T03:37:52.990Z,98.18
2017-04-28T03:38:52.961Z,98.08
2017-04-28T03:39:52.843Z,97.99
2017-04-28T03:40:52.913Z,97.99
2017-04-28T03:41:53.099Z,98.55
2017-04-28T03:42:52.872Z,97.99
2017-04-28T03:43:52.851Z,98.18
2017-04-28T03:44:52.823Z,98.18
2017-04-28T03:45:52.806Z,97.89
2017-04-28T03:46:52.777Z,98.27
2017-04-28T03:47:52.759Z,98.27
2017-04-28T03:48:52.732Z,98.08
2017-04-28T03:49:52.710Z,98.36
2017-04-28T03:50:52.689Z,98.46
2017-04-28T03:51:52.666Z,98.27
2017-04-28T03:52:52.641Z,97.8
2017-04-28T03:53:52.616Z,97.89
2017-04-28T03:54:52.594Z,97.89
2017-04-28T03:55:52.573Z,97.8
2017-04-28T03:56:52.551Z,97.42
2017-04-28T03:57:52.527Z,97.42
2017-04-28T03:58:52.502Z,97.52
2017-04-28T03:59:52.480Z,97.89
2017-04-28T04:00:52.459Z,98.18
2017-04-28T04:01:52.438Z,97.89
2017-04-28T04:02:52.413Z,98.08
2017-04-28T04:03:52.394Z,97.8
2017-04-28T04:04:52.367Z,97.99
2017-04-28T04:05:52.345Z,97.71
2017-04-28T04:06:52.321Z,97.89
2017-04-28T04:07:52.307Z,98.08
2017-04-28T04:08:52.285Z,98.08
2017-04-28T04:09:52.253Z,98.08
2017-04-28T04:10:52.231Z,97.89
2017-04-28T04:11:52.207Z,97.89
2017-04-28T04:12:52.184Z,97.89
2017-04-28T04:13:52.371Z,97.99
2017-04-28T04:14:52.138Z,98.36
2017-04-28T04:15:52.114Z,98.36
2017-04-28T04:16:52.097Z,97.99
2017-04-28T04:17:52.071Z,98.55
2017-04-28T04:18:52.250Z,98.36
2017-04-28T04:19:52.026Z,98.36
2017-04-28T04:20:52.001Z,98.36
2017-04-28T04:21:51.975Z,98.65
2017-04-28T04:22:51.954Z,98.27
2017-04-28T04:23:51.930Z,98.36
2017-04-28T04:24:51.906Z,98.08
2017-04-28T04:25:51.887Z,98.36
2017-04-28T04:26:51.859Z,98.46
2017-04-28T04:27:51.834Z,98.27
2017-04-28T04:28:51.814Z,98.27
2017-04-28T04:29:51.788Z,98.27
2017-04-28T04:30:51.767Z,98.36
2017-04-28T04:31:51.740Z,98.18
2017-04-28T04:32:51.722Z,98.08
2017-04-28T04:33:51.695Z,97.8
2017-04-28T04:34:51.670Z,97.89
2017-04-28T04:35:51.643Z,98.08
2017-04-28T04:36:51.623Z,97.99
2017-04-28T04:37:51.599Z,98.18
2017-04-28T04:38:51.576Z,97.8
2017-04-28T04:39:51.551Z,97.99
2017-04-28T04:40:51.527Z,97.52
2017-04-28T04:41:51.503Z,97.61
2017-04-28T04:42:51.478Z,96.86
2017-04-28T04:43:51.454Z,96.95
2017-04-28T04:44:51.641Z,97.61
2017-04-28T04:45:51.609Z,97.52
2017-04-28T04:46:51.387Z,97.33
2017-04-28T04:47:51.369Z,96.86
2017-04-28T04:48:51.337Z,97.05
2017-04-28T04:49:51.316Z,97.05
2017-04-28T04:50:51.295Z,97.24
2017-04-28T04:51:51.270Z,97.42
2017-04-28T04:52:51.247Z,97.42
2017-04-28T04:53:51.221Z,97.05
2017-04-28T04:54:51.204Z,97.14
2017-04-28T04:55:51.175Z,97.33
2017-04-28T04:56:51.152Z,97.52
2017-04-28T04:57:51.131Z,97.42
2017-04-28T04:58:51.103Z,97.33
2017-04-28T04:59:51.079Z,97.33
2017-04-28T05:00:51.058Z,97.42
2017-04-28T05:01:51.033Z,97.42
2017-04-28T05:02:51.010Z,97.42
2017-04-28T05:03:50.987Z,96.95
2017-04-28T05:04:50.960Z,96.86
2017-04-28T05:05:50.945Z,97.05
2017-04-28T05:06:50.915Z,96.67
2017-04-28T05:07:50.892Z,96.77
2017-04-28T05:08:50.869Z,97.05
2017-04-28T05:09:50.846Z,96.86
2017-04-28T05:10:50.821Z,96.95
2017-04-28T05:11:50.797Z,96.58
2017-04-28T05:12:50.773Z,96.3
2017-04-28T05:13:50.748Z,96.67
2017-04-28T05:14:50.721Z,96.11
2017-04-28T05:15:50.698Z,95.82
2017-04-28T05:16:50.681Z,95.82
2017-04-28T05:17:50.652Z,95.82
2017-04-28T05:18:50.630Z,95.92
2017-04-28T05:19:50.607Z,95.82
2017-04-28T05:20:50.582Z,95.73
2017-04-28T05:21:50.559Z,96.01
2017-04-28T05:22:50.533Z,96.01
2017-04-28T05:23:50.512Z,95.73
2017-04-28T05:24:50.489Z,95.73
2017-04-28T05:25:50.505Z,96.11
2017-04-28T05:26:50.441Z,96.01
2017-04-28T05:27:50.430Z,95.92
2017-04-28T05:28:50.396Z,96.01
2017-04-28T05:29:50.371Z,96.11
2017-04-28T05:30:50.344Z,96.11
2017-04-28T05:31:50.324Z,96.39
2017-04-28T05:32:50.302Z,96.39
2017-04-28T05:33:50.275Z,96.77
2017-04-28T05:34:50.252Z,96.2
2017-04-28T05:35:50.224Z,96.11
2017-04-28T05:36:50.204Z,96.48
2017-04-28T05:37:50.183Z,96.39
2017-04-28T05:38:50.157Z,96.39
2017-04-28T05:39:50.133Z,96.2
2017-04-28T05:40:50.109Z,95.82
2017-04-28T05:41:50.083Z,95.73
2017-04-28T05:42:50.063Z,95.73
2017-04-28T05:43:50.037Z,95.82
2017-04-28T05:44:50.011Z,95.82
2017-04-28T05:45:49.986Z,96.2
2017-04-28T05:46:49.964Z,95.82
2017-04-28T05:47:49.940Z,96.67
2017-04-28T05:48:49.916Z,96.3
2017-04-28T05:49:49.894Z,95.92
2017-04-28T05:50:49.865Z,95.82
2017-04-28T05:51:49.844Z,95.45
2017-04-28T05:52:49.823Z,95.16
2017-04-28T05:53:49.797Z,95.73
2017-04-28T05:54:49.771Z,95.26
2017-04-28T05:55:49.747Z,94.98
2017-04-28T05:56:49.728Z,94.79
2017-04-28T05:57:49.705Z,94.69
2017-04-28T05:58:49.680Z,94.31
2017-04-28T05:59:49.655Z,93.89
2017-04-28T06:00:49.631Z,93.7
2017-04-28T06:01:49.608Z,92.95
2017-04-28T06:02:49.583Z,93.23
2017-04-28T06:03:49.562Z,92.19
2017-04-28T06:04:49.535Z,92
2017-04-28T06:05:49.515Z,91.44
2017-04-28T06:06:49.497Z,91.25
2017-04-28T06:07:49.470Z,90.22
2017-04-28T06:08:49.444Z,90.36
2017-04-28T06:09:49.433Z,91.25
2017-04-28T06:10:49.410Z,91.25
2017-04-28T06:11:49.380Z,91.16
2017-04-28T06:12:49.360Z,92
2017-04-28T06:13:49.334Z,91.82
2017-04-28T06:14:49.313Z,92
2017-04-28T06:15:49.292Z,92.1
2017-04-28T06:16:49.269Z,92.1
2017-04-28T06:17:49.246Z,92.29
2017-04-28T06:18:49.225Z,92.29
2017-04-28T06:19:49.200Z,91.91
2017-04-28T06:20:49.176Z,91.72
2017-04-28T06:21:49.155Z,90.59
2017-04-28T06:22:49.162Z,90.78
2017-04-28T06:23:49.115Z,90.97
2017-04-28T06:24:49.088Z,90.88
2017-04-28T06:25:49.069Z,91.25
2017-04-28T06:26:49.044Z,90.97
2017-04-28T06:27:49.022Z,90.97
2017-04-28T06:28:49.000Z,90.69
2017-04-28T06:29:48.977Z,90.03
2017-04-28T06:30:48.954Z,90.22
2017-04-28T06:31:48.933Z,90.22
2017-04-28T06:32:48.912Z,89.84
2017-04-28T06:33:48.892Z,91.06
2017-04-28T06:34:48.866Z,90.88
2017-04-28T06:35:48.844Z,91.06
2017-04-28T06:36:48.819Z,91.06
2017-04-28T06:37:48.798Z,90.41
2017-04-28T06:38:48.475Z,90.41
2017-04-28T06:39:48.752Z,90.22
2017-04-28T06:40:48.731Z,90.12
2017-04-28T06:41:48.720Z,90.5
2017-04-28T06:42:48.691Z,90.31
2017-04-28T06:43:48.666Z,91.06
2017-04-28T06:44:48.645Z,90.97
2017-04-28T06:45:48.318Z,90.97
2017-04-28T06:46:48.601Z,90.41
2017-04-28T06:47:48.574Z,90.5
2017-04-28T06:48:48.551Z,90.78
2017-04-28T06:49:48.229Z,90.41
2017-04-28T06:50:48.507Z,89.84
2017-04-28T06:51:48.483Z,90.31
2017-04-28T06:52:48.463Z,90.31
2017-04-28T06:53:48.136Z,90.31
2017-04-28T06:54:48.414Z,90.22
2017-04-28T06:55:48.393Z,90.5
2017-04-28T06:56:48.372Z,91.06
2017-04-28T06:57:48.362Z,90.78
2017-04-28T06:58:48.324Z,91.06
2017-04-28T06:59:48.301Z,90.41
2017-04-28T07:00:48.278Z,90.5
2017-04-28T07:01:48.259Z,90.22
2017-04-28T07:02:48.236Z,89.93
2017-04-28T07:03:48.210Z,89.56
2017-04-28T07:04:48.190Z,89.46
2017-04-28T07:05:48.170Z,89.08
2017-04-28T07:06:48.146Z,88.42
2017-04-28T07:07:48.123Z,88.47
2017-04-28T07:08:48.101Z,88.94
2017-04-28T07:09:48.079Z,88.89
2017-04-28T07:10:48.062Z,89.37
2017-04-28T07:11:48.035Z,89.56
2017-04-28T07:12:48.011Z,89.93
2017-04-28T07:13:48.003Z,89.56
2017-04-28T07:14:47.973Z,89.08
2017-04-28T07:15:47.946Z,88.8
2017-04-28T07:16:47.923Z,88.14
2017-04-28T07:17:47.900Z,87.52
2017-04-28T07:18:47.880Z,87.05
2017-04-28T07:19:47.860Z,86.77
2017-04-28T07:20:47.838Z,86.11
2017-04-28T07:21:47.813Z,85.59
2017-04-28T07:22:47.796Z,86.06
2017-04-28T07:23:47.773Z,85.59
2017-04-28T07:24:47.753Z,85.02
2017-04-28T07:25:47.731Z,85.02
2017-04-28T07:26:47.719Z,85.68
2017-04-28T07:27:47.689Z,85.96
2017-04-28T07:28:47.670Z,85.96
2017-04-28T07:29:47.650Z,86.87
2017-04-28T07:30:47.629Z,87.24
2017-04-28T07:31:47.610Z,87.52
2017-04-28T07:32:47.589Z,87.34
2017-04-28T07:33:47.568Z,86.77
2017-04-28T07:34:47.543Z,86.4
2017-04-28T07:35:47.527Z,86.02
2017-04-28T07:36:47.506Z,86.49
2017-04-28T07:37:47.184Z,86.87
2017-04-28T07:38:47.462Z,86.96
2017-04-28T07:39:47.446Z,87.15
2017-04-28T07:40:47.424Z,87.81
2017-04-28T07:41:47.401Z,88.52
2017-04-28T07:42:47.417Z,88.33
2017-04-28T07:43:47.366Z,88.23
2017-04-28T07:44:47.337Z,87.67
2017-04-28T07:45:47.317Z,87.67
2017-04-28T07:46:47.322Z,87.57
2017-04-28T07:47:47.277Z,87.38
2017-04-28T07:48:47.254Z,87.38
2017-04-28T07:49:47.234Z,87.86
2017-04-28T07:50:47.214Z,87.57
2017-04-28T07:51:47.192Z,87.76
2017-04-28T07:52:47.169Z,87.57
2017-04-28T07:53:46.854Z,87.01
2017-04-28T07:54:47.129Z,86.21
2017-04-28T07:55:47.104Z,85.73
2017-04-28T07:56:47.082Z,85.73
2017-04-28T07:57:47.061Z,86.49
2017-04-28T07:58:47.039Z,88.37
2017-04-28T07:59:47.021Z,89.56
2017-04-28T08:00:46.996Z,89.42
2017-04-28T08:01:46.979Z,89.18
2017-04-28T08:02:46.955Z,88.8
2017-04-28T08:03:46.935Z,88.04
2017-04-28T08:04:46.914Z,87.19
2017-04-28T08:05:46.893Z,87.01
2017-04-28T08:06:46.871Z,86.63
2017-04-28T08:07:46.553Z,86.21
2017-04-28T08:08:46.833Z,85.54
2017-04-28T08:09:46.811Z,84.6
2017-04-28T08:10:46.792Z,85.64
2017-04-28T08:11:46.776Z,85.45
2017-04-28T08:12:46.750Z,84.69
2017-04-28T08:13:46.732Z,84.51
2017-04-28T08:14:46.712Z,84.83
2017-04-28T08:15:46.695Z,85.64
2017-04-28T08:16:46.673Z,86.02
2017-04-28T08:17:46.351Z,85.73
2017-04-28T08:18:46.632Z,86.4
2017-04-28T08:19:46.614Z,86.68
2017-04-28T08:20:46.591Z,87.19
2017-04-28T08:21:46.573Z,87.76
2017-04-28T08:22:46.552Z,87.48
2017-04-28T08:23:46.530Z,87.38
2017-04-28T08:24:46.512Z,87.01
2017-04-28T08:25:46.489Z,87.19
2017-04-28T08:26:46.473Z,86.82
2017-04-28T08:27:46.451Z,85.64
2017-04-28T08:28:46.425Z,84.98
2017-04-28T08:29:46.405Z,84.79
2017-04-28T08:30:46.385Z,84.69
2017-04-28T08:31:46.365Z,84.6
2017-04-28T08:32:46.343Z,84.03
2017-04-28T08:33:46.327Z,84.69
2017-04-28T08:34:46.302Z,84.88
2017-04-28T08:35:46.292Z,84.88
2017-04-28T08:36:46.267Z,84.69
2017-04-28T08:37:46.245Z,85.07
2017-04-28T08:38:46.222Z,85.07
2017-04-28T08:39:46.204Z,84.79
2017-04-28T08:40:46.188Z,84.88
2017-04-28T08:41:46.168Z,84.69
2017-04-28T08:42:46.147Z,84.03
2017-04-28T08:43:46.126Z,84.51
2017-04-28T08:44:46.107Z,83.56
2017-04-28T08:45:46.085Z,83.04
2017-04-28T08:46:46.065Z,80.96
2017-04-28T08:47:46.044Z,80.58
2017-04-28T08:48:46.026Z,80.44
2017-04-28T08:49:46.005Z,80.25
2017-04-28T08:50:45.987Z,80.63
2017-04-28T08:51:45.967Z,80.25
2017-04-28T08:52:45.949Z,79.78
2017-04-28T08:53:45.931Z,79.87
2017-04-28T08:54:45.910Z,80.02
2017-04-28T08:55:45.898Z,80.02
2017-04-28T08:56:45.872Z,80.11
2017-04-28T08:57:45.849Z,79.93
2017-04-28T08:58:45.834Z,79.36
2017-04-28T08:59:45.816Z,79.49
2017-04-28T09:00:45.791Z,79.49
2017-04-28T09:01:45.775Z,79.49
2017-04-28T09:02:45.782Z,79.11
2017-04-28T09:03:45.738Z,78.74
2017-04-28T09:04:45.716Z,78.27
2017-04-28T09:05:45.698Z,78.55
2017-04-28T09:06:45.679Z,78.45
2017-04-28T09:07:45.661Z,77.8
2017-04-28T09:08:45.643Z,78.08
2017-04-28T09:09:45.621Z,78.17
2017-04-28T09:10:45.610Z,78.45
2017-04-28T09:11:45.586Z,77.98
2017-04-28T09:12:45.571Z,77.61
2017-04-28T09:13:45.552Z,77.61
2017-04-28T09:14:45.530Z,77.42
2017-04-28T09:15:45.510Z,77.13
2017-04-28T09:16:45.492Z,76.66
2017-04-28T09:17:45.471Z,76.57
2017-04-28T09:18:45.457Z,76.76
2017-04-28T09:19:45.432Z,76.47
2017-04-28T09:20:45.413Z,76.85
2017-04-28T09:21:45.400Z,77.04
2017-04-28T09:22:45.376Z,77.42
2017-04-28T09:23:45.360Z,77.8
2017-04-28T09:24:45.339Z,78.08
2017-04-28T09:25:45.324Z,78.36
2017-04-28T09:26:45.301Z,78.04
2017-04-28T09:27:44.981Z,77.37
2017-04-28T09:28:45.266Z,77.8
2017-04-28T09:29:44.942Z,79.27
2017-04-28T09:30:45.224Z,80.3
2017-04-28T09:31:45.205Z,80.45
2017-04-28T09:32:45.187Z,81.02
2017-04-28T09:33:44.867Z,80.45
2017-04-28T09:34:45.149Z,79.98
2017-04-28T09:35:45.130Z,79.41
2017-04-28T09:36:44.814Z,80.3
2017-04-28T09:37:45.092Z,81.49
2017-04-28T09:38:45.073Z,81.73
2017-04-28T09:39:45.054Z,81.35
2017-04-28T09:40:44.733Z,80.64
2017-04-28T09:41:44.739Z,79.88
2017-04-28T09:42:44.997Z,79.32
2017-04-28T09:43:44.988Z,78.98
2017-04-28T09:44:44.657Z,78.6
2017-04-28T09:45:44.940Z,78.51
2017-04-28T09:46:44.920Z,78.13
2017-04-28T09:47:44.903Z,78.89
2017-04-28T09:48:44.880Z,79.36
2017-04-28T09:49:44.865Z,79.27
2017-04-28T09:50:44.845Z,78.89
2017-04-28T09:51:44.824Z,77.85
2017-04-28T09:52:44.807Z,78.42
2017-04-28T09:53:44.788Z,79.08
2017-04-28T09:54:44.769Z,79.17
2017-04-28T09:55:44.751Z,78.7
2017-04-28T09:56:44.729Z,78.04
2017-04-28T09:57:44.713Z,78.13
2017-04-28T09:58:44.696Z,77.56
2017-04-28T09:59:44.674Z,78.04
2017-04-28T10:00:44.655Z,77.66
2017-04-28T10:01:44.640Z,77.94
2017-04-28T10:02:44.615Z,77.37
2017-04-28T10:03:44.596Z,76.47
2017-04-28T10:04:44.610Z,76.38
2017-04-28T10:05:44.560Z,76.38
2017-04-28T10:06:44.541Z,77.61
2017-04-28T10:07:44.522Z,78.13
2017-04-28T10:08:44.505Z,78.89
2017-04-28T10:09:44.486Z,80.64
2017-04-28T10:10:44.469Z,81.21
2017-04-28T10:11:44.452Z,81.07
2017-04-28T10:12:44.428Z,80.98
2017-04-28T10:13:44.406Z,80.17
2017-04-28T10:14:44.389Z,78.85
2017-04-28T10:15:44.380Z,78.51
2017-04-28T10:16:44.354Z,77.75
2017-04-28T10:17:44.336Z,76.81
2017-04-28T10:18:44.316Z,76.66
2017-04-28T10:19:44.297Z,77.47
2017-04-28T10:20:44.278Z,77.47
2017-04-28T10:21:44.261Z,77.28
2017-04-28T10:22:44.242Z,77.94
2017-04-28T10:23:44.224Z,77.37
2017-04-28T10:24:44.207Z,77.28
2017-04-28T10:25:44.189Z,76.34
2017-04-28T10:26:44.171Z,76.66
2017-04-28T10:27:44.152Z,76.57
2017-04-28T10:28:43.835Z,76.47
2017-04-28T10:29:43.813Z,76.28
2017-04-28T10:30:43.818Z,76.09
2017-04-28T10:31:43.779Z,76.76
2017-04-28T10:32:44.068Z,76.28
2017-04-28T10:33:44.048Z,76.19
2017-04-28T10:34:44.031Z,76.28
2017-04-28T10:35:44.010Z,76.85
2017-04-28T10:36:43.992Z,76.66
2017-04-28T10:37:43.977Z,76.19
2017-04-28T10:38:43.962Z,75.05
2017-04-28T10:39:43.950Z,74.71
2017-04-28T10:40:43.926Z,73.49
2017-04-28T10:41:43.916Z,73.02
2017-04-28T10:42:43.892Z,72.02
2017-04-28T10:43:43.878Z,71.26
2017-04-28T10:44:43.859Z,69.65
2017-04-28T10:45:43.843Z,68.9
2017-04-28T10:46:43.827Z,67.47
2017-04-28T10:47:43.814Z,65.97
2017-04-28T10:48:43.794Z,65.91
2017-04-28T10:49:43.779Z,65.72
2017-04-28T10:50:43.762Z,66.09
2017-04-28T10:51:43.747Z,66
2017-04-28T10:52:43.728Z,65.97
2017-04-28T10:53:43.714Z,65.78
2017-04-28T10:54:43.698Z,65.4
2017-04-28T10:55:43.679Z,66.16
2017-04-28T10:56:43.675Z,65.62
2017-04-28T10:57:43.649Z,65.68
2017-04-28T10:58:43.638Z,65.43
2017-04-28T10:59:43.617Z,65.05
2017-04-28T11:00:43.601Z,65.15
2017-04-28T11:01:43.583Z,65.24
2017-04-28T11:02:43.565Z,64.48
2017-04-28T11:03:43.553Z,64.58
2017-04-28T11:04:43.535Z,64.96
2017-04-28T11:05:43.519Z,64.39
2017-04-28T11:06:43.504Z,64.39
2017-04-28T11:07:43.490Z,65.05
2017-04-28T11:08:43.471Z,64.86
2017-04-28T11:09:43.455Z,64.96
2017-04-28T11:10:43.136Z,65.05
2017-04-28T11:11:43.426Z,65.15
2017-04-28T11:12:43.403Z,65.02
2017-04-28T11:13:43.390Z,65.11
2017-04-28T11:14:43.377Z,65.11
2017-04-28T11:15:43.357Z,64.83
2017-04-28T11:16:43.342Z,64.67
2017-04-28T11:17:43.325Z,64.45
2017-04-28T11:18:43.312Z,64.77
2017-04-28T11:19:43.293Z,64.54
2017-04-28T11:20:43.278Z,64.45
2017-04-28T11:21:43.261Z,64.17
2017-04-28T11:22:43.247Z,64.11
2017-04-28T11:23:43.228Z,63.89
2017-04-28T11:24:43.214Z,64.01
2017-04-28T11:25:43.199Z,63.64
2017-04-28T11:26:43.178Z,63.54
2017-04-28T11:27:43.167Z,63.73
2017-04-28T11:28:42.848Z,63.92
2017-04-28T11:29:43.134Z,63.92
2017-04-28T11:30:43.119Z,64.2
2017-04-28T11:31:43.106Z,64.01
2017-04-28T11:32:43.086Z,64.26
2017-04-28T11:33:43.068Z,64.07
2017-04-28T11:34:43.052Z,64.17
2017-04-28T11:35:43.038Z,63.89
2017-04-28T11:36:43.019Z,63.89
2017-04-28T11:37:43.005Z,63.64
2017-04-28T11:38:42.987Z,63.64
2017-04-28T11:39:42.969Z,63.16
2017-04-28T11:40:42.958Z,63.07
2017-04-28T11:41:42.941Z,62.12
2017-04-28T11:42:42.628Z,62.4
2017-04-28T11:43:42.907Z,62.59
2017-04-28T11:44:42.891Z,62.4
2017-04-28T11:45:42.876Z,62.5
2017-04-28T11:46:42.870Z,62.69
2017-04-28T11:47:42.840Z,62.97
2017-04-28T11:48:42.823Z,63.16
2017-04-28T11:49:42.813Z,63.6
2017-04-28T11:50:42.797Z,63.98
2017-04-28T11:51:42.779Z,64.26
2017-04-28T11:52:42.459Z,63.89
2017-04-28T11:53:42.744Z,64.17
2017-04-28T11:54:42.729Z,64.07
2017-04-28T11:55:42.740Z,64.61
2017-04-28T11:56:42.699Z,64.51
2017-04-28T11:57:42.681Z,64.23
2017-04-28T11:58:42.664Z,64.23
2017-04-28T11:59:42.649Z,64.14
2017-04-28T12:00:42.630Z,63.51
2017-04-28T12:01:42.613Z,63.51
2017-04-28T12:02:42.599Z,63.13
2017-04-28T12:03:42.584Z,62.94
2017-04-28T12:04:42.568Z,63.51
2017-04-28T12:05:42.550Z,63.89
2017-04-28T12:06:42.534Z,64.26
2017-04-28T12:07:42.517Z,64.79
2017-04-28T12:08:42.502Z,64.42
2017-04-28T12:09:42.485Z,65.17
2017-04-28T12:10:42.469Z,65.46
2017-04-28T12:11:42.454Z,65.17
2017-04-28T12:12:42.442Z,65.27
2017-04-28T12:13:42.422Z,65.08
2017-04-28T12:14:42.402Z,65.46
2017-04-28T12:15:42.387Z,65.08
2017-04-28T12:16:42.369Z,65.08
2017-04-28T12:17:42.354Z,65.08
2017-04-28T12:18:42.335Z,65.17
2017-04-28T12:19:42.321Z,65.36
2017-04-28T12:20:42.304Z,65.74
2017-04-28T12:21:42.285Z,65.46
2017-04-28T12:22:42.272Z,65.08
2017-04-28T12:23:42.255Z,65.36
2017-04-28T12:24:42.238Z,64.89
2017-04-28T12:25:42.218Z,65.08
2017-04-28T12:26:42.206Z,64.98
2017-04-28T12:27:42.186Z,65.27
2017-04-28T12:28:42.175Z,65.74
2017-04-28T12:29:42.155Z,65.46
2017-04-28T12:30:42.136Z,66.03
2017-04-28T12:31:42.121Z,66.37
2017-04-28T12:32:42.102Z,65.99
2017-04-28T12:33:42.089Z,66.75
2017-04-28T12:34:42.074Z,66.84
2017-04-28T12:35:42.059Z,66.52
2017-04-28T12:36:42.035Z,66.43
2017-04-28T12:37:42.021Z,66.28
2017-04-28T12:38:42.003Z,66.28
2017-04-28T12:39:41.984Z,65.99
2017-04-28T12:40:41.969Z,65.9
2017-04-28T12:41:41.951Z,65.71
2017-04-28T12:42:41.933Z,65.33
2017-04-28T12:43:41.913Z,65.36
2017-04-28T12:44:41.901Z,65.36
2017-04-28T12:45:41.882Z,64.89
2017-04-28T12:46:41.861Z,65.08
2017-04-28T12:47:41.846Z,64.98
2017-04-28T12:48:41.826Z,65.08
2017-04-28T12:49:41.813Z,64.98
2017-04-28T12:50:41.793Z,65.46
2017-04-28T12:51:41.779Z,65.46
2017-04-28T12:52:41.764Z,64.98
2017-04-28T12:53:41.743Z,65.46
2017-04-28T12:54:41.730Z,65.84